PN69 weather

Altemose Ultralightport
Malvern, Pennsylvania, United States

Public forecast

Using degrees Fahrenheit for public forecast. Weather courtesy of forecast.io.

METAR (pilot weather report)

Closest report is Brandywine Airport, 6.9 nm (12.7 km) SSW. Retrieved 2019/07/23 16:35 UTC (14 minutes ago):

KOQN 231635Z AUTO 34003KT 10SM SCT021 OVC028 22/17 A2987 RMK AO2 LTG DSNT S

TAF (pilot weather forecast)

Closest forecast is Philadelphia International Airport, 18.3 nm (33.9 km) SE. Retrieved 2019/07/23 12:42 UTC (4 hours ago):

TAF KPHL 231138Z 2312/2418 32009KT P6SM VCSH SCT015 OVC035 TEMPO 2312/2315 BKN015 FM231900 24005KT P6SM OVC060 FM240200 06005KT P6SM BKN060 FM240800 36005KT P6SM BKN080 FM241200 01006KT P6SM SCT150